sensor_id;sensor_type;location;lat;lon;timestamp;pressure;altitude;pressure_sealevel;temperature;humidity
54592;BME280;40488;48.558;18.150;2024-02-26T00:01:21;98693.25;;;6.18;87.98
54592;BME280;40488;48.558;18.150;2024-02-26T00:03:49;98689.06;;;6.18;88.41
54592;BME280;40488;48.558;18.150;2024-02-26T00:06:19;98674.69;;;6.16;88.05
54592;BME280;40488;48.558;18.150;2024-02-26T00:08:47;98673.84;;;6.12;88.25
54592;BME280;40488;48.558;18.150;2024-02-26T00:11:17;98670.47;;;6.08;88.26
54592;BME280;40488;48.558;18.150;2024-02-26T00:13:46;98665.38;;;6.07;88.29
54592;BME280;40488;48.558;18.150;2024-02-26T00:16:14;98673.84;;;6.07;88.42
54592;BME280;40488;48.558;18.150;2024-02-26T00:18:43;98667.06;;;6.05;88.34
54592;BME280;40488;48.558;18.150;2024-02-26T00:21:16;98667.09;;;6.02;88.20
54592;BME280;40488;48.558;18.150;2024-02-26T00:23:44;98670.44;;;5.98;88.45
54592;BME280;40488;48.558;18.150;2024-02-26T00:26:13;98672.13;;;5.93;88.07
54592;BME280;40488;48.558;18.150;2024-02-26T00:28:43;98678.88;;;5.91;88.25
54592;BME280;40488;48.558;18.150;2024-02-26T00:31:12;98675.53;;;5.95;88.50
54592;BME280;40488;48.558;18.150;2024-02-26T00:33:39;98672.16;;;5.90;88.56
54592;BME280;40488;48.558;18.150;2024-02-26T00:36:08;98666.22;;;5.86;88.50
54592;BME280;40488;48.558;18.150;2024-02-26T00:38:37;98658.63;;;5.88;88.56
54592;BME280;40488;48.558;18.150;2024-02-26T00:41:06;98660.28;;;5.83;88.15
54592;BME280;40488;48.558;18.150;2024-02-26T00:43:35;98654.41;;;5.85;88.24
54592;BME280;40488;48.558;18.150;2024-02-26T00:46:06;98660.25;;;5.77;88.25
54592;BME280;40488;48.558;18.150;2024-02-26T00:48:35;98657.72;;;5.77;88.49
54592;BME280;40488;48.558;18.150;2024-02-26T00:53:32;98662.75;;;5.62;88.04
54592;BME280;40488;48.558;18.150;2024-02-26T00:56:01;98655.19;;;5.59;88.69
54592;BME280;40488;48.558;18.150;2024-02-26T00:58:30;98650.94;;;5.59;88.36
54592;BME280;40488;48.558;18.150;2024-02-26T01:00:58;98656.00;;;5.56;88.49
54592;BME280;40488;48.558;18.150;2024-02-26T01:03:28;98650.09;;;5.56;88.27
54592;BME280;40488;48.558;18.150;2024-02-26T01:05:57;98641.66;;;5.55;88.70
54592;BME280;40488;48.558;18.150;2024-02-26T01:08:26;98649.22;;;5.46;87.92
54592;BME280;40488;48.558;18.150;2024-02-26T01:10:54;98651.78;;;5.45;88.27
54592;BME280;40488;48.558;18.150;2024-02-26T01:13:23;98651.75;;;5.48;88.91
54592;BME280;40488;48.558;18.150;2024-02-26T01:15:51;98645.00;;;5.43;88.50
54592;BME280;40488;48.558;18.150;2024-02-26T01:18:20;98640.81;;;5.44;88.49
54592;BME280;40488;48.558;18.150;2024-02-26T01:20:51;98644.19;;;5.45;88.35
54592;BME280;40488;48.558;18.150;2024-02-26T01:23:21;98639.09;;;5.37;88.63
54592;BME280;40488;48.558;18.150;2024-02-26T01:25:49;98645.00;;;5.34;88.67
54592;BME280;40488;48.558;18.150;2024-02-26T01:28:18;98637.38;;;5.31;88.58
54592;BME280;40488;48.558;18.150;2024-02-26T01:30:47;98639.91;;;5.25;88.67
54592;BME280;40488;48.558;18.150;2024-02-26T01:33:15;98648.28;;;5.18;88.62
54592;BME280;40488;48.558;18.150;2024-02-26T01:35:44;98649.16;;;5.16;88.52
54592;BME280;40488;48.558;18.150;2024-02-26T01:38:15;98643.22;;;5.12;88.68
54592;BME280;40488;48.558;18.150;2024-02-26T01:40:43;98637.34;;;5.13;88.70
54592;BME280;40488;48.558;18.150;2024-02-26T01:43:12;98635.63;;;5.12;88.72
54592;BME280;40488;48.558;18.150;2024-02-26T01:45:40;98627.22;;;5.21;88.84
54592;BME280;40488;48.558;18.150;2024-02-26T01:48:08;98631.44;;;5.23;88.93
54592;BME280;40488;48.558;18.150;2024-02-26T01:50:38;98623.03;;;5.27;88.95
54592;BME280;40488;48.558;18.150;2024-02-26T01:53:08;98622.19;;;5.25;88.83
54592;BME280;40488;48.558;18.150;2024-02-26T01:55:38;98626.41;;;5.20;89.10
54592;BME280;40488;48.558;18.150;2024-02-26T01:58:07;98629.72;;;5.10;89.05
54592;BME280;40488;48.558;18.150;2024-02-26T02:00:35;98623.81;;;5.08;89.12
54592;BME280;40488;48.558;18.150;2024-02-26T02:03:04;98622.97;;;5.12;88.84
54592;BME280;40488;48.558;18.150;2024-02-26T02:05:33;98631.47;;;5.20;89.32
54592;BME280;40488;48.558;18.150;2024-02-26T02:08:10;98628.09;;;5.23;89.35
54592;BME280;40488;48.558;18.150;2024-02-26T02:10:40;98635.66;;;5.24;89.45
54592;BME280;40488;48.558;18.150;2024-02-26T02:13:09;98622.19;;;5.27;89.46
54592;BME280;40488;48.558;18.150;2024-02-26T02:15:37;98618.84;;;5.29;88.99
54592;BME280;40488;48.558;18.150;2024-02-26T02:18:06;98617.97;;;5.30;89.84
54592;BME280;40488;48.558;18.150;2024-02-26T02:20:36;98614.63;;;5.25;89.53
54592;BME280;40488;48.558;18.150;2024-02-26T02:23:05;98616.28;;;5.20;89.51
54592;BME280;40488;48.558;18.150;2024-02-26T02:25:33;98606.13;;;5.19;89.45
54592;BME280;40488;48.558;18.150;2024-02-26T02:28:02;98603.59;;;5.13;89.53
54592;BME280;40488;48.558;18.150;2024-02-26T02:30:30;98606.13;;;5.14;89.52
54592;BME280;40488;48.558;18.150;2024-02-26T02:33:00;98593.47;;;5.07;89.51
54592;BME280;40488;48.558;18.150;2024-02-26T02:35:29;98602.72;;;5.06;89.61
54592;BME280;40488;48.558;18.150;2024-02-26T02:37:59;98601.03;;;5.02;89.65
54592;BME280;40488;48.558;18.150;2024-02-26T02:40:28;98596.81;;;5.03;89.57
54592;BME280;40488;48.558;18.150;2024-02-26T02:42:56;98598.47;;;4.99;89.67
54592;BME280;40488;48.558;18.150;2024-02-26T02:45:25;98592.59;;;4.96;89.70
54592;BME280;40488;48.558;18.150;2024-02-26T02:47:54;98602.69;;;4.94;89.42
54592;BME280;40488;48.558;18.150;2024-02-26T02:50:21;98598.47;;;4.92;89.71
54592;BME280;40488;48.558;18.150;2024-02-26T02:52:50;98599.31;;;4.89;89.31
54592;BME280;40488;48.558;18.150;2024-02-26T02:55:20;98604.34;;;4.92;89.44
54592;BME280;40488;48.558;18.150;2024-02-26T02:57:48;98600.97;;;4.90;89.43
54592;BME280;40488;48.558;18.150;2024-02-26T03:00:17;98593.38;;;4.84;89.60
54592;BME280;40488;48.558;18.150;2024-02-26T03:02:45;98590.00;;;4.85;89.52
54592;BME280;40488;48.558;18.150;2024-02-26T03:05:14;98593.38;;;4.87;89.86
54592;BME280;40488;48.558;18.150;2024-02-26T03:07:43;98595.91;;;4.84;89.71
54592;BME280;40488;48.558;18.150;2024-02-26T03:10:11;98590.84;;;4.84;89.74
54592;BME280;40488;48.558;18.150;2024-02-26T03:12:42;98596.75;;;4.83;89.87
54592;BME280;40488;48.558;18.150;2024-02-26T03:15:10;98590.00;;;4.85;89.50
54592;BME280;40488;48.558;18.150;2024-02-26T03:17:39;98592.53;;;4.82;90.03
54592;BME280;40488;48.558;18.150;2024-02-26T03:20:08;98590.88;;;4.90;90.33
54592;BME280;40488;48.558;18.150;2024-02-26T03:22:38;98595.91;;;4.87;90.07
54592;BME280;40488;48.558;18.150;2024-02-26T03:25:07;98594.22;;;4.86;90.04
54592;BME280;40488;48.558;18.150;2024-02-26T03:27:36;98585.78;;;4.83;90.14
54592;BME280;40488;48.558;18.150;2024-02-26T03:30:06;98591.69;;;4.83;90.38
54592;BME280;40488;48.558;18.150;2024-02-26T03:32:35;98590.00;;;4.84;90.42
54592;BME280;40488;48.558;18.150;2024-02-26T03:35:04;98587.47;;;4.82;90.45
54592;BME280;40488;48.558;18.150;2024-02-26T03:37:34;98584.94;;;4.81;90.54
54592;BME280;40488;48.558;18.150;2024-02-26T03:40:02;98592.53;;;4.85;90.41
54592;BME280;40488;48.558;18.150;2024-02-26T03:42:31;98582.44;;;4.88;90.39
54592;BME280;40488;48.558;18.150;2024-02-26T03:44:59;98586.66;;;4.86;90.22
54592;BME280;40488;48.558;18.150;2024-02-26T03:47:29;98586.63;;;4.82;90.29
54592;BME280;40488;48.558;18.150;2024-02-26T03:49:58;98579.03;;;4.77;90.53
54592;BME280;40488;48.558;18.150;2024-02-26T03:52:27;98587.44;;;4.74;90.41
54592;BME280;40488;48.558;18.150;2024-02-26T03:54:55;98579.84;;;4.70;90.50
54592;BME280;40488;48.558;18.150;2024-02-26T03:57:24;98582.38;;;4.70;90.35
54592;BME280;40488;48.558;18.150;2024-02-26T03:59:52;98578.13;;;4.70;90.53
54592;BME280;40488;48.558;18.150;2024-02-26T04:02:21;98571.41;;;4.69;90.60
54592;BME280;40488;48.558;18.150;2024-02-26T04:04:51;98569.72;;;4.68;90.36
54592;BME280;40488;48.558;18.150;2024-02-26T04:07:20;98573.09;;;4.67;90.44
54592;BME280;40488;48.558;18.150;2024-02-26T04:09:48;98564.66;;;4.68;90.34
54592;BME280;40488;48.558;18.150;2024-02-26T04:12:17;98564.66;;;4.67;90.64
54592;BME280;40488;48.558;18.150;2024-02-26T04:14:45;98562.13;;;4.64;90.49
54592;BME280;40488;48.558;18.150;2024-02-26T04:17:14;98566.31;;;4.62;90.58
54592;BME280;40488;48.558;18.150;2024-02-26T04:19:42;98567.16;;;4.61;90.45
54592;BME280;40488;48.558;18.150;2024-02-26T04:22:12;98569.69;;;4.64;90.42
54592;BME280;40488;48.558;18.150;2024-02-26T04:24:41;98566.31;;;4.59;90.33
54592;BME280;40488;48.558;18.150;2024-02-26T04:27:09;98572.19;;;4.61;90.26
54592;BME280;40488;48.558;18.150;2024-02-26T04:29:38;98574.75;;;4.62;90.56
54592;BME280;40488;48.558;18.150;2024-02-26T04:32:06;98570.47;;;4.54;90.47
54592;BME280;40488;48.558;18.150;2024-02-26T04:34:35;98566.28;;;4.54;90.30
54592;BME280;40488;48.558;18.150;2024-02-26T04:37:04;98564.59;;;4.55;90.27
54592;BME280;40488;48.558;18.150;2024-02-26T04:39:34;98566.25;;;4.51;90.27
54592;BME280;40488;48.558;18.150;2024-02-26T04:42:02;98568.78;;;4.50;90.51
54592;BME280;40488;48.558;18.150;2024-02-26T04:44:31;98569.63;;;4.46;90.35
54592;BME280;40488;48.558;18.150;2024-02-26T04:47:00;98562.06;;;4.52;90.39
54592;BME280;40488;48.558;18.150;2024-02-26T04:49:28;98567.13;;;4.55;90.26
54592;BME280;40488;48.558;18.150;2024-02-26T04:51:57;98571.34;;;4.53;90.08
54592;BME280;40488;48.558;18.150;2024-02-26T04:54:25;98568.81;;;4.53;90.25
54592;BME280;40488;48.558;18.150;2024-02-26T04:56:55;98570.50;;;4.51;90.19
54592;BME280;40488;48.558;18.150;2024-02-26T04:59:24;98565.41;;;4.48;90.15
54592;BME280;40488;48.558;18.150;2024-02-26T05:01:52;98567.09;;;4.47;90.18
54592;BME280;40488;48.558;18.150;2024-02-26T05:04:21;98570.44;;;4.45;90.10
54592;BME280;40488;48.558;18.150;2024-02-26T05:06:49;98565.38;;;4.40;90.38
54592;BME280;40488;48.558;18.150;2024-02-26T05:09:18;98570.41;;;4.42;90.69
54592;BME280;40488;48.558;18.150;2024-02-26T05:11:46;98562.84;;;4.42;90.54
54592;BME280;40488;48.558;18.150;2024-02-26T05:14:16;98575.47;;;4.40;91.11
54592;BME280;40488;48.558;18.150;2024-02-26T05:16:44;98578.00;;;4.40;90.28
54592;BME280;40488;48.558;18.150;2024-02-26T05:19:13;98572.09;;;4.40;90.49
54592;BME280;40488;48.558;18.150;2024-02-26T05:21:42;98577.16;;;4.43;90.88
54592;BME280;40488;48.558;18.150;2024-02-26T05:24:11;98575.50;;;4.45;90.81
54592;BME280;40488;48.558;18.150;2024-02-26T05:26:39;98574.66;;;4.49;90.86
54592;BME280;40488;48.558;18.150;2024-02-26T05:29:08;98574.72;;;4.53;90.57
54592;BME280;40488;48.558;18.150;2024-02-26T05:31:37;98570.50;;;4.57;90.93
54592;BME280;40488;48.558;18.150;2024-02-26T05:34:06;98570.53;;;4.60;90.93
54592;BME280;40488;48.558;18.150;2024-02-26T05:36:34;98575.59;;;4.63;90.96
54592;BME280;40488;48.558;18.150;2024-02-26T05:39:03;98575.59;;;4.66;91.02
54592;BME280;40488;48.558;18.150;2024-02-26T05:41:32;98591.63;;;4.69;90.85
54592;BME280;40488;48.558;18.150;2024-02-26T05:44:00;98585.78;;;4.75;91.16
54592;BME280;40488;48.558;18.150;2024-02-26T05:46:29;98588.28;;;4.78;90.98
54592;BME280;40488;48.558;18.150;2024-02-26T05:48:58;98591.69;;;4.82;91.33
54592;BME280;40488;48.558;18.150;2024-02-26T05:51:27;98600.13;;;4.82;91.21
54592;BME280;40488;48.558;18.150;2024-02-26T05:53:55;98603.50;;;4.89;91.65
54592;BME280;40488;48.558;18.150;2024-02-26T05:56:25;98599.28;;;4.92;91.56
54592;BME280;40488;48.558;18.150;2024-02-26T05:58:53;98606.06;;;4.96;91.55
54592;BME280;40488;48.558;18.150;2024-02-26T06:01:21;98602.72;;;5.00;91.91
54592;BME280;40488;48.558;18.150;2024-02-26T06:03:51;98596.84;;;5.07;91.78
54592;BME280;40488;48.558;18.150;2024-02-26T06:06:21;98599.38;;;5.10;91.71
54592;BME280;40488;48.558;18.150;2024-02-26T06:08:51;98592.66;;;5.15;91.74
54592;BME280;40488;48.558;18.150;2024-02-26T06:11:19;98596.88;;;5.21;91.89
54592;BME280;40488;48.558;18.150;2024-02-26T06:13:50;98596.06;;;5.26;92.13
54592;BME280;40488;48.558;18.150;2024-02-26T06:16:18;98596.06;;;5.40;92.17
54592;BME280;40488;48.558;18.150;2024-02-26T06:18:46;98593.63;;;5.84;93.19
54592;BME280;40488;48.558;18.150;2024-02-26T06:21:15;98597.00;;;6.30;93.46
54592;BME280;40488;48.558;18.150;2024-02-26T06:23:45;98596.13;;;6.59;92.93
54592;BME280;40488;48.558;18.150;2024-02-26T06:26:14;98595.94;;;7.08;94.40
54592;BME280;40488;48.558;18.150;2024-02-26T06:28:42;98600.78;;;7.53;95.35
54592;BME280;40488;48.558;18.150;2024-02-26T06:31:11;98605.59;;;7.89;95.84
54592;BME280;40488;48.558;18.150;2024-02-26T06:33:40;98606.28;;;8.06;95.85
54592;BME280;40488;48.558;18.150;2024-02-26T06:36:08;98609.47;;;8.36;96.48
54592;BME280;40488;48.558;18.150;2024-02-26T06:38:37;98605.91;;;8.53;96.24
54592;BME280;40488;48.558;18.150;2024-02-26T06:41:06;98605.78;;;8.64;96.72
54592;BME280;40488;48.558;18.150;2024-02-26T06:43:35;98616.69;;;8.78;95.85
54592;BME280;40488;48.558;18.150;2024-02-26T06:46:04;98612.34;;;8.86;95.75
54592;BME280;40488;48.558;18.150;2024-02-26T06:48:33;98619.84;;;8.95;95.56
54592;BME280;40488;48.558;18.150;2024-02-26T06:51:04;98614.72;;;9.01;95.16
54592;BME280;40488;48.558;18.150;2024-02-26T06:53:32;98612.09;;;9.07;95.39
54592;BME280;40488;48.558;18.150;2024-02-26T06:56:01;98612.88;;;9.12;94.82
54592;BME280;40488;48.558;18.150;2024-02-26T06:58:32;98615.34;;;9.18;94.23
54592;BME280;40488;48.558;18.150;2024-02-26T07:01:01;98612.72;;;9.24;94.04
54592;BME280;40488;48.558;18.150;2024-02-26T07:03:29;98611.84;;;9.27;94.03
54592;BME280;40488;48.558;18.150;2024-02-26T07:05:58;98614.31;;;9.31;93.35
54592;BME280;40488;48.558;18.150;2024-02-26T07:08:26;98610.88;;;9.37;93.17
54592;BME280;40488;48.558;18.150;2024-02-26T07:10:54;98610.81;;;9.41;92.84
54592;BME280;40488;48.558;18.150;2024-02-26T07:13:23;98610.78;;;9.44;92.99
54592;BME280;40488;48.558;18.150;2024-02-26T07:15:53;98604.78;;;9.47;92.20
54592;BME280;40488;48.558;18.150;2024-02-26T07:18:21;98614.94;;;9.49;91.67
54592;BME280;40488;48.558;18.150;2024-02-26T07:20:50;98620.84;;;9.51;91.42
54592;BME280;40488;48.558;18.150;2024-02-26T07:23:18;98616.63;;;9.51;91.34
54592;BME280;40488;48.558;18.150;2024-02-26T07:25:47;98619.97;;;9.55;91.38
54592;BME280;40488;48.558;18.150;2024-02-26T07:28:20;98622.38;;;9.64;90.49
54592;BME280;40488;48.558;18.150;2024-02-26T07:30:49;98623.06;;;9.75;90.28
54592;BME280;40488;48.558;18.150;2024-02-26T07:33:28;98622.91;;;9.85;89.80
54592;BME280;40488;48.558;18.150;2024-02-26T07:35:58;98624.47;;;9.94;89.10
54592;BME280;40488;48.558;18.150;2024-02-26T07:38:27;98622.69;;;10.00;88.80
54592;BME280;40488;48.558;18.150;2024-02-26T07:41:08;98618.38;;;10.04;88.22
54592;BME280;40488;48.558;18.150;2024-02-26T07:43:37;98618.25;;;10.13;88.16
54592;BME280;40488;48.558;18.150;2024-02-26T07:46:05;98619.91;;;10.17;88.01
54592;BME280;40488;48.558;18.150;2024-02-26T07:48:35;98619.84;;;10.20;87.73
54592;BME280;40488;48.558;18.150;2024-02-26T07:51:04;98615.44;;;10.30;87.09
54592;BME280;40488;48.558;18.150;2024-02-26T07:53:32;98617.81;;;10.40;86.91
54592;BME280;40488;48.558;18.150;2024-02-26T07:56:01;98616.69;;;10.55;86.71
54592;BME280;40488;48.558;18.150;2024-02-26T07:58:31;98630.91;;;10.69;86.42
54592;BME280;40488;48.558;18.150;2024-02-26T08:01:00;98625.56;;;10.82;85.45
54592;BME280;40488;48.558;18.150;2024-02-26T08:03:29;98634.59;;;10.98;85.02
54592;BME280;40488;48.558;18.150;2024-02-26T08:05:59;98625.75;;;11.15;84.93
54592;BME280;40488;48.558;18.150;2024-02-26T08:08:27;98624.66;;;11.27;83.91
54592;BME280;40488;48.558;18.150;2024-02-26T08:10:57;98621.09;;;11.34;83.16
54592;BME280;40488;48.558;18.150;2024-02-26T08:13:26;98618.41;;;11.41;82.67
54592;BME280;40488;48.558;18.150;2024-02-26T08:15:54;98614.78;;;11.52;81.86
54592;BME280;40488;48.558;18.150;2024-02-26T08:18:23;98622.91;;;11.69;82.17
54592;BME280;40488;48.558;18.150;2024-02-26T08:20:51;98616.09;;;11.69;80.64
54592;BME280;40488;48.558;18.150;2024-02-26T08:23:21;98628.66;;;11.78;79.81
54592;BME280;40488;48.558;18.150;2024-02-26T08:25:49;98620.13;;;11.79;79.22
54592;BME280;40488;48.558;18.150;2024-02-26T08:28:18;98624.97;;;11.91;79.82
54592;BME280;40488;48.558;18.150;2024-02-26T08:30:47;98628.09;;;12.02;78.81
54592;BME280;40488;48.558;18.150;2024-02-26T08:33:15;98624.75;;;12.00;79.33
54592;BME280;40488;48.558;18.150;2024-02-26T08:35:45;98618.78;;;12.00;79.50
54592;BME280;40488;48.558;18.150;2024-02-26T08:38:13;98614.28;;;12.09;79.29
54592;BME280;40488;48.558;18.150;2024-02-26T08:40:43;98619.09;;;12.23;78.83
54592;BME280;40488;48.558;18.150;2024-02-26T08:43:12;98617.28;;;12.27;78.11
54592;BME280;40488;48.558;18.150;2024-02-26T08:45:40;98614.53;;;12.34;78.37
54592;BME280;40488;48.558;18.150;2024-02-26T08:48:09;98620.44;;;12.38;77.82
54592;BME280;40488;48.558;18.150;2024-02-26T08:50:37;98624.16;;;12.25;77.21
54592;BME280;40488;48.558;18.150;2024-02-26T08:53:05;98619.06;;;12.25;77.76
54592;BME280;40488;48.558;18.150;2024-02-26T08:55:34;98613.56;;;12.40;77.82
54592;BME280;40488;48.558;18.150;2024-02-26T08:58:04;98626.13;;;12.49;77.72
54592;BME280;40488;48.558;18.150;2024-02-26T09:00:32;98621.53;;;12.61;78.07
54592;BME280;40488;48.558;18.150;2024-02-26T09:03:01;98627.44;;;12.63;76.00
54592;BME280;40488;48.558;18.150;2024-02-26T09:05:32;98622.28;;;12.65;76.10
54592;BME280;40488;48.558;18.150;2024-02-26T09:08:00;98619.91;;;12.59;76.03
54592;BME280;40488;48.558;18.150;2024-02-26T09:10:29;98609.47;;;12.65;75.99
54592;BME280;40488;48.558;18.150;2024-02-26T09:12:57;98626.28;;;12.75;74.79
54592;BME280;40488;48.558;18.150;2024-02-26T09:15:28;98610.91;;;12.75;74.91
54592;BME280;40488;48.558;18.150;2024-02-26T09:17:56;98615.31;;;12.71;75.01
54592;BME280;40488;48.558;18.150;2024-02-26T09:20:25;98600.56;;;12.79;75.04
54592;BME280;40488;48.558;18.150;2024-02-26T09:22:53;98596.91;;;12.88;75.21
54592;BME280;40488;48.558;18.150;2024-02-26T09:25:22;98601.13;;;12.91;74.92
54592;BME280;40488;48.558;18.150;2024-02-26T09:27:50;98605.41;;;12.90;74.10
54592;BME280;40488;48.558;18.150;2024-02-26T09:30:19;98606.97;;;12.94;72.93
54592;BME280;40488;48.558;18.150;2024-02-26T09:32:50;98608.41;;;13.04;73.72
54592;BME280;40488;48.558;18.150;2024-02-26T09:35:19;98611.19;;;13.27;73.15
54592;BME280;40488;48.558;18.150;2024-02-26T09:37:48;98615.25;;;13.34;71.84
54592;BME280;40488;48.558;18.150;2024-02-26T09:40:17;98615.09;;;13.40;72.19
54592;BME280;40488;48.558;18.150;2024-02-26T09:42:46;98610.56;;;13.49;72.00
54592;BME280;40488;48.558;18.150;2024-02-26T09:45:17;98616.22;;;13.60;72.80
54592;BME280;40488;48.558;18.150;2024-02-26T09:47:47;98621.00;;;13.42;73.09
54592;BME280;40488;48.558;18.150;2024-02-26T09:50:17;98631.59;;;13.30;73.13
54592;BME280;40488;48.558;18.150;2024-02-26T09:52:50;98626.75;;;13.21;71.88
54592;BME280;40488;48.558;18.150;2024-02-26T09:55:19;98634.34;;;13.24;72.24
54592;BME280;40488;48.558;18.150;2024-02-26T09:57:48;98632.72;;;13.22;73.52
54592;BME280;40488;48.558;18.150;2024-02-26T10:00:20;98631.38;;;13.09;72.19
54592;BME280;40488;48.558;18.150;2024-02-26T10:02:49;98623.28;;;13.22;72.27
54592;BME280;40488;48.558;18.150;2024-02-26T10:05:21;98624.22;;;13.20;73.05
54592;BME280;40488;48.558;18.150;2024-02-26T10:07:49;98631.53;;;13.33;73.38
54592;BME280;40488;48.558;18.150;2024-02-26T10:10:18;98612.53;;;13.40;72.06
54592;BME280;40488;48.558;18.150;2024-02-26T10:12:47;98620.13;;;13.43;72.05
54592;BME280;40488;48.558;18.150;2024-02-26T10:15:15;98627.34;;;13.59;71.75
54592;BME280;40488;48.558;18.150;2024-02-26T10:17:44;98620.06;;;13.73;70.61
54592;BME280;40488;48.558;18.150;2024-02-26T10:20:13;98622.88;;;13.93;70.66
54592;BME280;40488;48.558;18.150;2024-02-26T10:22:45;98624.44;;;13.98;68.83
54592;BME280;40488;48.558;18.150;2024-02-26T10:25:14;98638.78;;;14.04;69.42
54592;BME280;40488;48.558;18.150;2024-02-26T10:27:43;98619.25;;;14.00;68.47
54592;BME280;40488;48.558;18.150;2024-02-26T10:30:15;98618.94;;;14.09;69.01
54592;BME280;40488;48.558;18.150;2024-02-26T10:32:45;98612.63;;;14.19;69.10
54592;BME280;40488;48.558;18.150;2024-02-26T10:35:14;98625.00;;;14.34;68.86
54592;BME280;40488;48.558;18.150;2024-02-26T10:37:44;98618.28;;;14.30;69.09
54592;BME280;40488;48.558;18.150;2024-02-26T10:40:13;98623.69;;;14.21;69.41
54592;BME280;40488;48.558;18.150;2024-02-26T10:42:42;98618.94;;;14.09;68.65
54592;BME280;40488;48.558;18.150;2024-02-26T10:45:12;98614.78;;;13.79;67.86
54592;BME280;40488;48.558;18.150;2024-02-26T10:47:41;98621.78;;;13.74;69.99
54592;BME280;40488;48.558;18.150;2024-02-26T10:50:10;98618.22;;;13.78;69.91
54592;BME280;40488;48.558;18.150;2024-02-26T10:52:45;98618.13;;;13.81;69.49
54592;BME280;40488;48.558;18.150;2024-02-26T10:55:14;98607.78;;;13.84;69.78
54592;BME280;40488;48.558;18.150;2024-02-26T10:57:45;98610.34;;;13.84;69.31
54592;BME280;40488;48.558;18.150;2024-02-26T11:00:14;98616.19;;;13.89;69.37
54592;BME280;40488;48.558;18.150;2024-02-26T11:02:43;98615.88;;;13.98;68.68
54592;BME280;40488;48.558;18.150;2024-02-26T11:05:13;98616.63;;;14.01;68.05
54592;BME280;40488;48.558;18.150;2024-02-26T11:07:43;98603.75;;;14.03;68.43
54592;BME280;40488;48.558;18.150;2024-02-26T11:10:15;98605.63;;;14.24;68.54
54592;BME280;40488;48.558;18.150;2024-02-26T11:12:44;98604.56;;;14.31;67.66
54592;BME280;40488;48.558;18.150;2024-02-26T11:15:14;98604.16;;;14.43;67.75
54592;BME280;40488;48.558;18.150;2024-02-26T11:17:43;98602.28;;;14.48;65.91
54592;BME280;40488;48.558;18.150;2024-02-26T11:20:12;98590.44;;;14.44;65.22
54592;BME280;40488;48.558;18.150;2024-02-26T11:22:42;98593.03;;;14.43;65.37
54592;BME280;40488;48.558;18.150;2024-02-26T11:25:11;98588.75;;;14.43;64.96
54592;BME280;40488;48.558;18.150;2024-02-26T11:27:43;98588.81;;;14.42;66.22
54592;BME280;40488;48.558;18.150;2024-02-26T11:30:13;98587.28;;;14.36;66.33
54592;BME280;40488;48.558;18.150;2024-02-26T11:32:44;98589.91;;;14.35;66.32
54592;BME280;40488;48.558;18.150;2024-02-26T11:35:13;98590.53;;;14.41;66.21
54592;BME280;40488;48.558;18.150;2024-02-26T11:37:51;98582.63;;;14.21;65.26
54592;BME280;40488;48.558;18.150;2024-02-26T11:40:20;98587.97;;;14.15;66.04
54592;BME280;40488;48.558;18.150;2024-02-26T11:42:50;98589.53;;;14.19;65.41
54592;BME280;40488;48.558;18.150;2024-02-26T11:48:10;98577.22;;;14.30;65.29
54592;BME280;40488;48.558;18.150;2024-02-26T11:50:40;98587.06;;;14.42;66.29
54592;BME280;40488;48.558;18.150;2024-02-26T11:58:45;98562.44;;;14.61;65.50
54592;BME280;40488;48.558;18.150;2024-02-26T12:04:04;98576.38;;;14.79;65.23
54592;BME280;40488;48.558;18.150;2024-02-26T12:06:39;98572.97;;;14.78;64.99
54592;BME280;40488;48.558;18.150;2024-02-26T12:09:09;98564.28;;;14.83;66.00
54592;BME280;40488;48.558;18.150;2024-02-26T12:11:38;98559.91;;;14.85;64.64
54592;BME280;40488;48.558;18.150;2024-02-26T12:14:08;98563.16;;;14.90;65.75
54592;BME280;40488;48.558;18.150;2024-02-26T12:16:37;98569.44;;;14.81;66.30
54592;BME280;40488;48.558;18.150;2024-02-26T12:19:06;98566.16;;;14.77;65.56
54592;BME280;40488;48.558;18.150;2024-02-26T12:21:36;98571.16;;;14.57;64.75
54592;BME280;40488;48.558;18.150;2024-02-26T12:24:14;98563.19;;;14.40;65.35
54592;BME280;40488;48.558;18.150;2024-02-26T12:26:43;98569.09;;;14.42;66.22
54592;BME280;40488;48.558;18.150;2024-02-26T12:29:14;98563.09;;;14.43;66.08
54592;BME280;40488;48.558;18.150;2024-02-26T12:31:42;98554.28;;;14.50;66.09
54592;BME280;40488;48.558;18.150;2024-02-26T12:34:11;98554.50;;;14.44;65.54
54592;BME280;40488;48.558;18.150;2024-02-26T12:36:41;98555.44;;;14.42;67.03
54592;BME280;40488;48.558;18.150;2024-02-26T12:39:09;98560.06;;;14.32;66.40
54592;BME280;40488;48.558;18.150;2024-02-26T12:41:38;98560.44;;;14.20;66.94
54592;BME280;40488;48.558;18.150;2024-02-26T12:44:07;98552.88;;;14.16;67.66
54592;BME280;40488;48.558;18.150;2024-02-26T12:46:37;98545.81;;;14.22;67.61
54592;BME280;40488;48.558;18.150;2024-02-26T12:49:06;98560.41;;;14.46;67.17
54592;BME280;40488;48.558;18.150;2024-02-26T12:51:34;98550.28;;;14.66;67.21
54592;BME280;40488;48.558;18.150;2024-02-26T12:54:03;98555.38;;;14.91;67.40
54592;BME280;40488;48.558;18.150;2024-02-26T12:56:31;98563.88;;;15.16;66.17
54592;BME280;40488;48.558;18.150;2024-02-26T12:59:00;98559.34;;;15.00;66.27
54592;BME280;40488;48.558;18.150;2024-02-26T13:01:30;98570.91;;;14.88;66.30
54592;BME280;40488;48.558;18.150;2024-02-26T13:04:00;98563.38;;;14.59;66.48
54592;BME280;40488;48.558;18.150;2024-02-26T13:06:34;98576.28;;;14.57;66.96
54592;BME280;40488;48.558;18.150;2024-02-26T13:09:03;98576.69;;;14.45;67.22
54592;BME280;40488;48.558;18.150;2024-02-26T13:11:31;98571.47;;;14.48;67.94
54592;BME280;40488;48.558;18.150;2024-02-26T13:14:00;98562.25;;;14.43;68.47
54592;BME280;40488;48.558;18.150;2024-02-26T13:16:32;98560.88;;;14.57;68.12
54592;BME280;40488;48.558;18.150;2024-02-26T13:19:09;98558.47;;;14.77;67.61